METAR AND TAF INFORMATION
METAR FOR SKLT
ADDS - METARS form results

(2337 UTC 20 April 2018)
Data provider http://aviationweather.gov/adds/metars/
 
METAR text: SKLT 202300Z 00000KT 9999 SCT012 SCT070 23/23 A2984
Conditions at: SKLT (LETICIA/VASQUEZ , CO) observed 2300 UTC 20 April 2018
Temperature: 23.0°C (73°F)
Dewpoint: 23.0°C (73°F) [RH = 100%]
Pressure (altimeter): 29.84 inches Hg (1010.6 mb)
Winds: calm
Visibility: 6 or more miles (10+ km)
Ceiling: at least 12,000 feet AGL
Clouds: scattered clouds at 1200 feet AGL
scattered clouds at 7000 feet AGL
Weather: no significant weather observed at this time

Forecast for: SKLT (LETICIA/VASQUEZ , CO)
Text: TAF SKLT 202300Z 2100/2124 VRB02KT 9999 SCT017 BKN090
Forecast period: 0000 UTC 21 April 2018 to 0000 UTC 22 April 2018
Forecast type: FROM: standard forecast or significant change
Winds: variable direction winds at 2 MPH (2 knots; 1.0 m/s)
Visibility: 6 or more miles (10+ km)
Ceiling: 9000 feet AGL
Clouds: scattered clouds at 1700 feet AGL
broken clouds at 9000 feet AGL
Weather: no significant weather forecast for this period
Forecast for: SKLT (LETICIA/VASQUEZ , CO)
Text: TAF SKLT 202300Z 2100/2124 VRB02KT 9999 SCT017 BKN090
Forecast period: 0000 UTC 21 April 2018 to 0000 UTC 22 April 2018
Forecast type: FROM: standard forecast or significant change
Winds: variable direction winds at 2 MPH (2 knots; 1.0 m/s)
Visibility: 6 or more miles (10+ km)
Ceiling: 9000 feet AGL
Clouds: scattered clouds at 1700 feet AGL
broken clouds at 9000 feet AGL
Weather: no significant weather forecast for this period
Forecast for: SKLT (LETICIA/VASQUEZ , CO)
Text: TAF SKLT 202300Z 2100/2124 VRB02KT 9999 SCT017 BKN090
Forecast period: 0200 to 0700 UTC 21 April 2018
Forecast type: TEMPORARY: The following changes expected for less than half the time period
Visibility: 4 miles (6 km)
Ceiling: 1000 feet AGL
Clouds: broken clouds at 1000 feet AGL
Weather: DZ  (drizzle)
Forecast for: SKLT (LETICIA/VASQUEZ , CO)
Text: TAF SKLT 202300Z 2100/2124 VRB02KT 9999 SCT017 BKN090
Forecast period: 0200 to 0700 UTC 21 April 2018
Forecast type: TEMPORARY: The following changes expected for less than half the time period
Visibility: 4 miles (6 km)
Ceiling: 1000 feet AGL
Clouds: broken clouds at 1000 feet AGL
Weather: DZ  (drizzle)
Forecast for: SKLT (LETICIA/VASQUEZ , CO)
Text: TAF SKLT 202300Z 2100/2124 VRB02KT 9999 SCT017 BKN090
Forecast period: 1300 to 1700 UTC 21 April 2018
Forecast type: TEMPORARY: The following changes expected for less than half the time period
Visibility: 4 miles (7 km)
Ceiling: 7000 feet AGL
Clouds: scattered clouds at 1500 feet AGL
overcast cloud deck at 7000 feet AGL
Weather: TSRA  (rain associated with thunderstorm(s))
Forecast for: SKLT (LETICIA/VASQUEZ , CO)
Text: TAF SKLT 202300Z 2100/2124 VRB02KT 9999 SCT017 BKN090
Forecast period: 1300 to 1700 UTC 21 April 2018
Forecast type: TEMPORARY: The following changes expected for less than half the time period
Visibility: 4 miles (7 km)
Ceiling: 7000 feet AGL
Clouds: scattered clouds at 1500 feet AGL
overcast cloud deck at 7000 feet AGL
Weather: TSRA  (rain associated with thunderstorm(s))

 AIRPORT MAP

 RUNWAY INFORMATION
Runway 03 Runway length 6168 ft Runway width 131 ft
Runway elevation 314 ft Runway displaced threshold 0 ft Runway heading 21
Runway 21 Runway length 6168 ft Runway width 131 ft
Runway elevation 313 ft Runway displaced threshold 0 ft Runway heading 201

 AIRPORT FREQUENCIES
Type APP Name LETICIA AP Frequency 119.1 MHZ
Type RDO Name LETICIA RD Frequency 127.5 MHZ
Type TWR Name TWR Frequency 118.1 MHZ

 AIRPORT NEAR NAVIGATION AIDS
Type VOR-DME Name Leticia Frequency 117500 KHZ
Type NDB Name Leticia Frequency 407 KHZ



v2.6.1